createdAt,value
2018-03-24T00:00:13.766Z,0.00
2018-03-24T00:01:13.771Z,0.00
2018-03-24T00:02:13.777Z,0.00
2018-03-24T00:03:13.782Z,0.00
2018-03-24T00:04:13.786Z,0.00
2018-03-24T00:05:13.796Z,0.00
2018-03-24T00:06:13.795Z,0.00
2018-03-24T00:07:13.804Z,0.00
2018-03-24T00:08:13.806Z,0.00
2018-03-24T00:09:13.813Z,0.00
2018-03-24T00:10:13.821Z,0.00
2018-03-24T00:11:13.821Z,0.00
2018-03-24T00:12:13.839Z,0.00
2018-03-24T00:13:13.829Z,0.00
2018-03-24T00:14:13.840Z,0.00
2018-03-24T00:15:13.842Z,0.00
2018-03-24T00:16:13.849Z,0.00
2018-03-24T00:17:13.854Z,0.00
2018-03-24T00:18:13.856Z,0.00
2018-03-24T00:19:13.864Z,0.00
2018-03-24T00:20:13.866Z,0.00
2018-03-24T00:21:13.872Z,0.00
2018-03-24T00:22:13.880Z,0.00
2018-03-24T00:23:13.880Z,0.00
2018-03-24T00:24:13.886Z,0.00
2018-03-24T00:25:13.891Z,0.00
2018-03-24T00:26:13.894Z,0.00
2018-03-24T00:27:13.904Z,0.00
2018-03-24T00:28:13.902Z,0.00
2018-03-24T00:29:13.912Z,0.00
2018-03-24T00:30:13.913Z,0.00
2018-03-24T00:31:13.917Z,0.00
2018-03-24T00:32:13.920Z,0.00
2018-03-24T00:33:13.929Z,0.00
2018-03-24T00:34:13.933Z,0.00
2018-03-24T00:35:13.938Z,0.00
2018-03-24T00:36:13.945Z,0.00
2018-03-24T00:37:13.946Z,0.00
2018-03-24T00:38:13.951Z,0.00
2018-03-24T00:39:13.955Z,0.00
2018-03-24T00:40:13.959Z,0.00
2018-03-24T00:41:13.963Z,0.00
2018-03-24T00:42:13.969Z,0.00
2018-03-24T00:43:13.972Z,0.00
2018-03-24T00:44:13.979Z,0.00
2018-03-24T00:45:13.985Z,0.00
2018-03-24T00:46:13.999Z,0.00
2018-03-24T00:47:14.000Z,0.00
2018-03-24T00:48:13.998Z,0.00
2018-03-24T00:49:14.002Z,0.00
2018-03-24T00:50:14.006Z,0.00
2018-03-24T00:51:14.010Z,0.00
2018-03-24T00:52:14.018Z,0.00
2018-03-24T00:53:14.023Z,0.00
2018-03-24T00:54:14.028Z,0.00
2018-03-24T00:55:14.028Z,0.00
2018-03-24T00:56:14.032Z,0.00
2018-03-24T00:57:14.037Z,0.00
2018-03-24T00:58:14.067Z,0.00
2018-03-24T00:59:14.046Z,0.00
2018-03-24T01:00:14.051Z,0.00
2018-03-24T01:01:14.057Z,0.00
2018-03-24T01:02:14.062Z,0.00
2018-03-24T01:03:14.065Z,0.00
2018-03-24T01:04:14.082Z,0.00
2018-03-24T01:05:14.072Z,0.00
2018-03-24T01:06:14.078Z,0.00
2018-03-24T01:07:14.085Z,0.00
2018-03-24T01:08:14.088Z,0.00
2018-03-24T01:09:14.090Z,0.00
2018-03-24T01:10:14.097Z,0.00
2018-03-24T01:11:14.101Z,0.00
2018-03-24T01:12:14.107Z,0.00
2018-03-24T01:13:14.111Z,0.00
2018-03-24T01:14:14.114Z,0.00
2018-03-24T01:15:14.119Z,0.00
2018-03-24T01:16:14.121Z,0.00
2018-03-24T01:17:14.129Z,0.00
2018-03-24T01:18:14.132Z,0.00
2018-03-24T01:19:14.145Z,0.00
2018-03-24T01:20:14.142Z,0.00
2018-03-24T01:21:14.153Z,0.00
2018-03-24T01:22:14.149Z,0.00
2018-03-24T01:23:14.154Z,0.00
2018-03-24T01:24:14.157Z,0.00
2018-03-24T01:25:14.162Z,0.00
2018-03-24T01:26:14.165Z,0.00
2018-03-24T01:27:14.172Z,0.00
2018-03-24T01:28:14.175Z,0.00
2018-03-24T01:29:14.178Z,0.00
2018-03-24T01:30:14.190Z,0.00
2018-03-24T01:31:14.189Z,0.00
2018-03-24T01:32:14.192Z,0.00
2018-03-24T01:33:14.198Z,0.00
2018-03-24T01:34:14.204Z,0.00
2018-03-24T01:35:14.205Z,0.00
2018-03-24T01:36:14.208Z,0.00
2018-03-24T01:37:14.212Z,0.00
2018-03-24T01:38:14.219Z,0.00
2018-03-24T01:39:14.221Z,0.00
2018-03-24T01:40:14.228Z,0.00
2018-03-24T01:41:14.234Z,0.00
2018-03-24T01:42:14.235Z,0.00
2018-03-24T01:43:14.239Z,0.00
2018-03-24T01:44:14.250Z,0.00
2018-03-24T01:45:14.254Z,0.00
2018-03-24T01:46:14.252Z,0.00
2018-03-24T01:47:14.261Z,0.00
2018-03-24T01:48:14.268Z,0.00
2018-03-24T01:49:14.264Z,0.00
2018-03-24T01:50:14.269Z,0.00
2018-03-24T01:51:14.312Z,0.00
2018-03-24T01:52:14.275Z,0.00
2018-03-24T01:53:14.283Z,0.00
2018-03-24T01:54:14.285Z,0.00
2018-03-24T01:55:14.314Z,0.00
2018-03-24T01:56:14.293Z,0.00
2018-03-24T01:57:14.297Z,0.00
2018-03-24T01:58:14.301Z,0.00
2018-03-24T01:59:14.308Z,0.00
2018-03-24T02:00:14.315Z,0.00
2018-03-24T02:01:14.315Z,0.00
2018-03-24T02:02:14.320Z,0.00
2018-03-24T02:03:14.324Z,0.00
2018-03-24T02:04:14.326Z,0.00
2018-03-24T02:05:14.353Z,0.00
2018-03-24T02:06:14.334Z,0.00
2018-03-24T02:07:14.340Z,0.00
2018-03-24T02:08:14.343Z,0.00
2018-03-24T02:09:14.349Z,0.00
2018-03-24T02:10:14.357Z,0.00
2018-03-24T02:11:14.359Z,0.00
2018-03-24T02:12:14.359Z,0.00
2018-03-24T02:13:14.363Z,0.00
2018-03-24T02:14:14.368Z,0.00
2018-03-24T02:15:14.372Z,0.00
2018-03-24T02:16:14.374Z,0.00
2018-03-24T02:17:14.382Z,0.00
2018-03-24T02:18:14.387Z,0.00
2018-03-24T02:19:14.388Z,0.00
2018-03-24T02:20:14.390Z,0.00
2018-03-24T02:21:14.395Z,0.00
2018-03-24T02:22:14.404Z,0.00
2018-03-24T02:23:14.403Z,0.00
2018-03-24T02:24:14.406Z,0.00
2018-03-24T02:25:14.423Z,0.00
2018-03-24T02:26:14.417Z,0.00
2018-03-24T02:27:14.420Z,0.00
2018-03-24T02:28:14.433Z,0.00
2018-03-24T02:29:14.432Z,0.00
2018-03-24T02:30:14.433Z,0.00
2018-03-24T02:31:14.435Z,0.00
2018-03-24T02:32:14.439Z,0.00
2018-03-24T02:33:14.457Z,0.00
2018-03-24T02:34:14.448Z,0.00
2018-03-24T02:35:14.453Z,0.00
2018-03-24T02:36:14.456Z,0.00
2018-03-24T02:37:14.459Z,0.00
2018-03-24T02:38:14.461Z,0.00
2018-03-24T02:39:14.473Z,0.00
2018-03-24T02:40:14.476Z,0.00
2018-03-24T02:41:14.475Z,0.00
2018-03-24T02:42:14.540Z,0.00
2018-03-24T02:43:14.484Z,0.00
2018-03-24T02:44:14.494Z,0.00
2018-03-24T02:45:14.493Z,0.00
2018-03-24T02:46:14.494Z,0.00
2018-03-24T02:47:14.502Z,0.00
2018-03-24T02:48:14.507Z,0.00
2018-03-24T02:49:14.505Z,0.00
2018-03-24T02:50:14.509Z,0.00
2018-03-24T02:51:14.532Z,0.00
2018-03-24T02:52:14.523Z,0.00
2018-03-24T02:53:14.520Z,0.00
2018-03-24T02:54:14.524Z,0.00
2018-03-24T02:55:14.534Z,0.00
2018-03-24T02:56:14.532Z,0.00
2018-03-24T02:57:14.538Z,0.00
2018-03-24T02:58:14.538Z,0.00
2018-03-24T02:59:14.542Z,0.00
2018-03-24T03:00:14.550Z,0.00
2018-03-24T03:01:14.561Z,0.00
2018-03-24T03:02:14.557Z,0.00
2018-03-24T03:03:14.564Z,0.00
2018-03-24T03:04:14.561Z,0.00
2018-03-24T03:05:14.568Z,0.00
2018-03-24T03:06:14.570Z,0.00
2018-03-24T03:07:14.575Z,0.00
2018-03-24T03:08:14.578Z,0.00
2018-03-24T03:09:14.582Z,0.00
2018-03-24T03:10:14.584Z,0.00
2018-03-24T03:11:14.592Z,0.00
2018-03-24T03:12:14.593Z,0.00
2018-03-24T03:13:14.614Z,0.00
2018-03-24T03:14:14.600Z,0.00
2018-03-24T03:15:14.601Z,0.00
2018-03-24T03:16:14.605Z,0.00
2018-03-24T03:17:14.617Z,0.00
2018-03-24T03:18:14.614Z,0.00
2018-03-24T03:19:14.623Z,0.00
2018-03-24T03:20:14.634Z,0.00
2018-03-24T03:21:14.624Z,0.00
2018-03-24T03:22:14.631Z,0.00
2018-03-24T03:23:14.687Z,0.00
2018-03-24T03:24:14.634Z,0.00
2018-03-24T03:25:14.639Z,0.00
2018-03-24T03:26:14.641Z,0.00
2018-03-24T03:27:14.645Z,0.00
2018-03-24T03:28:14.650Z,0.00
2018-03-24T03:29:14.652Z,0.00
2018-03-24T03:30:14.659Z,0.00
2018-03-24T03:31:14.662Z,0.00
2018-03-24T03:32:14.664Z,0.00
2018-03-24T03:33:14.668Z,0.00
2018-03-24T03:34:14.674Z,0.00
2018-03-24T03:35:14.678Z,0.00
2018-03-24T03:36:14.678Z,0.00
2018-03-24T03:37:14.683Z,0.00
2018-03-24T03:38:14.684Z,0.00
2018-03-24T03:39:14.690Z,0.00
2018-03-24T03:40:14.692Z,0.00
2018-03-24T03:41:14.698Z,0.00
2018-03-24T03:42:14.707Z,0.00
2018-03-24T03:43:14.712Z,0.00
2018-03-24T03:44:14.705Z,0.00
2018-03-24T03:45:14.712Z,0.00
2018-03-24T03:46:14.731Z,0.00
2018-03-24T03:47:14.719Z,0.00
2018-03-24T03:48:14.725Z,0.00
2018-03-24T03:49:14.727Z,0.00
2018-03-24T03:50:14.732Z,0.00
2018-03-24T03:51:14.733Z,0.00
2018-03-24T03:52:14.740Z,0.00
2018-03-24T03:53:14.741Z,0.00
2018-03-24T03:54:14.746Z,0.00
2018-03-24T03:55:14.748Z,0.00
2018-03-24T03:56:14.753Z,0.00
2018-03-24T03:57:14.754Z,0.00
2018-03-24T03:58:14.757Z,0.00
2018-03-24T03:59:14.760Z,0.00
2018-03-24T04:00:14.767Z,0.00
2018-03-24T04:01:14.768Z,0.00
2018-03-24T04:02:14.773Z,0.00
2018-03-24T04:03:14.780Z,0.00
2018-03-24T04:04:14.781Z,0.00
2018-03-24T04:05:14.781Z,0.00
2018-03-24T04:06:14.787Z,0.00
2018-03-24T04:07:14.793Z,0.00
2018-03-24T04:08:14.795Z,0.00
2018-03-24T04:09:14.798Z,0.00
2018-03-24T04:10:14.801Z,0.00
2018-03-24T04:11:14.804Z,0.00
2018-03-24T04:12:14.807Z,0.00
2018-03-24T04:13:14.814Z,0.00
2018-03-24T04:14:14.818Z,0.00
2018-03-24T04:15:14.834Z,0.00
2018-03-24T04:16:14.832Z,0.00
2018-03-24T04:17:14.824Z,0.00
2018-03-24T04:18:14.830Z,0.00
2018-03-24T04:19:14.834Z,0.00
2018-03-24T04:20:14.837Z,0.00
2018-03-24T04:21:14.842Z,0.00
2018-03-24T04:22:14.850Z,0.00
2018-03-24T04:23:14.849Z,0.00
2018-03-24T04:24:14.848Z,0.00
2018-03-24T04:25:14.854Z,0.00
2018-03-24T04:26:14.858Z,0.00
2018-03-24T04:27:14.859Z,0.00
2018-03-24T04:28:14.862Z,0.00
2018-03-24T04:29:14.866Z,0.00
2018-03-24T04:30:14.869Z,0.00
2018-03-24T04:31:14.876Z,0.00
2018-03-24T04:32:14.882Z,0.00
2018-03-24T04:33:14.881Z,0.00
2018-03-24T04:34:14.944Z,0.00
2018-03-24T04:35:14.887Z,0.00
2018-03-24T04:36:14.891Z,0.00
2018-03-24T04:37:14.895Z,0.00
2018-03-24T04:38:14.898Z,0.00
2018-03-24T04:39:14.902Z,0.00
2018-03-24T04:40:14.905Z,0.00
2018-03-24T04:41:14.909Z,0.00
2018-03-24T04:42:14.910Z,0.00
2018-03-24T04:43:14.914Z,0.00
2018-03-24T04:44:14.916Z,0.00
2018-03-24T04:45:14.922Z,0.00
2018-03-24T04:46:14.925Z,0.00
2018-03-24T04:47:14.926Z,0.00
2018-03-24T04:48:14.973Z,0.00
2018-03-24T04:49:14.939Z,0.00
2018-03-24T04:50:14.936Z,4.00
2018-03-24T04:51:14.949Z,0.00
2018-03-24T04:52:14.949Z,4.00
2018-03-24T04:53:14.950Z,0.00
2018-03-24T04:54:14.950Z,4.00
2018-03-24T04:55:14.953Z,4.00
2018-03-24T04:56:14.960Z,4.00
2018-03-24T04:57:14.957Z,8.00
2018-03-24T04:58:14.974Z,8.00
2018-03-24T04:59:14.968Z,12.00
2018-03-24T05:00:14.968Z,12.00
2018-03-24T05:01:14.973Z,16.00
2018-03-24T05:02:14.976Z,20.00
2018-03-24T05:03:14.981Z,20.00
2018-03-24T05:04:14.984Z,28.00
2018-03-24T05:05:14.987Z,36.00
2018-03-24T05:06:14.996Z,36.00
2018-03-24T05:07:14.992Z,48.00
2018-03-24T05:08:15.004Z,52.00
2018-03-24T05:09:14.999Z,60.00
2018-03-24T05:10:15.008Z,72.00
2018-03-24T05:11:15.009Z,80.00
2018-03-24T05:12:15.013Z,88.00
2018-03-24T05:13:15.014Z,104.00
2018-03-24T05:14:15.016Z,112.00
2018-03-24T05:15:15.019Z,128.00
2018-03-24T05:16:15.030Z,144.00
2018-03-24T05:17:15.038Z,160.00
2018-03-24T05:18:15.036Z,176.00
2018-03-24T05:19:15.053Z,192.00
2018-03-24T05:20:15.037Z,212.00
2018-03-24T05:21:15.039Z,228.00
2018-03-24T05:22:15.041Z,248.00
2018-03-24T05:23:15.047Z,272.00
2018-03-24T05:24:15.049Z,292.00
2018-03-24T05:25:15.052Z,312.00
2018-03-24T05:26:15.087Z,336.00
2018-03-24T05:27:15.061Z,356.00
2018-03-24T05:28:15.067Z,380.00
2018-03-24T05:29:15.065Z,404.00
2018-03-24T05:30:15.068Z,428.00
2018-03-24T05:31:15.077Z,452.00
2018-03-24T05:32:15.078Z,472.00
2018-03-24T05:33:15.081Z,496.00
2018-03-24T05:34:15.084Z,520.00
2018-03-24T05:35:15.103Z,544.00
2018-03-24T05:36:15.096Z,564.00
2018-03-24T05:37:15.117Z,592.00
2018-03-24T05:38:15.097Z,616.00
2018-03-24T05:39:15.107Z,636.00
2018-03-24T05:40:15.102Z,660.00
2018-03-24T05:41:15.110Z,684.00
2018-03-24T05:42:15.110Z,708.00
2018-03-24T05:43:15.117Z,728.00
2018-03-24T05:44:15.116Z,752.00
2018-03-24T05:45:15.121Z,776.00
2018-03-24T05:46:15.125Z,796.00
2018-03-24T05:47:15.129Z,820.00
2018-03-24T05:48:15.130Z,840.00
2018-03-24T05:49:15.134Z,864.00
2018-03-24T05:50:15.139Z,884.00
2018-03-24T05:51:15.140Z,908.00
2018-03-24T05:52:15.168Z,928.00
2018-03-24T05:53:15.146Z,948.00
2018-03-24T05:54:15.159Z,964.00
2018-03-24T05:55:15.158Z,984.00
2018-03-24T05:56:15.162Z,1004.00
2018-03-24T05:57:15.162Z,1024.00
2018-03-24T05:58:15.177Z,1044.00
2018-03-24T05:59:15.168Z,1060.00
2018-03-24T06:00:15.174Z,1076.00
2018-03-24T06:01:15.179Z,1092.00
2018-03-24T06:02:15.177Z,1108.00
2018-03-24T06:03:15.183Z,1124.00
2018-03-24T06:04:15.187Z,1136.00
2018-03-24T06:05:15.193Z,1156.00
2018-03-24T06:06:15.211Z,1168.00
2018-03-24T06:07:15.200Z,1184.00
2018-03-24T06:08:15.200Z,1200.00
2018-03-24T06:09:15.207Z,1212.00
2018-03-24T06:10:15.208Z,1228.00
2018-03-24T06:11:15.216Z,1244.00
2018-03-24T06:12:15.216Z,1260.00
2018-03-24T06:13:15.221Z,1268.00
2018-03-24T06:14:15.222Z,1284.00
2018-03-24T06:15:15.226Z,1296.00
2018-03-24T06:16:15.229Z,1308.00
2018-03-24T06:17:15.275Z,1320.00
2018-03-24T06:18:15.236Z,1332.00
2018-03-24T06:19:15.241Z,1348.00
2018-03-24T06:20:15.261Z,1360.00
2018-03-24T06:21:15.265Z,1372.00
2018-03-24T06:22:15.251Z,1384.00
2018-03-24T06:23:15.275Z,1392.00
2018-03-24T06:24:15.259Z,1404.00
2018-03-24T06:25:15.263Z,1412.00
2018-03-24T06:26:15.266Z,1420.00
2018-03-24T06:27:15.271Z,1440.00
2018-03-24T06:28:15.275Z,1448.00
2018-03-24T06:29:15.275Z,1456.00
2018-03-24T06:30:15.282Z,1468.00
2018-03-24T06:31:15.285Z,1472.00
2018-03-24T06:32:15.288Z,1480.00
2018-03-24T06:33:15.295Z,1492.00
2018-03-24T06:34:15.299Z,1500.00
2018-03-24T06:35:15.303Z,1512.00
2018-03-24T06:36:15.305Z,1520.00
2018-03-24T06:37:15.310Z,1524.00
2018-03-24T06:38:15.325Z,1536.00
2018-03-24T06:39:15.320Z,1544.00
2018-03-24T06:40:15.318Z,1552.00
2018-03-24T06:41:15.323Z,1560.00
2018-03-24T06:42:15.327Z,1568.00
2018-03-24T06:43:15.330Z,1572.00
2018-03-24T06:44:15.333Z,1584.00
2018-03-24T06:45:15.337Z,1588.00
2018-03-24T06:46:15.348Z,1592.00
2018-03-24T06:47:15.346Z,1600.00
2018-03-24T06:48:15.349Z,1612.00
2018-03-24T06:49:15.353Z,1612.00
2018-03-24T06:50:15.366Z,1616.00
2018-03-24T06:51:15.361Z,1624.00
2018-03-24T06:52:15.364Z,1632.00
2018-03-24T06:53:15.377Z,1640.00
2018-03-24T06:54:15.375Z,1644.00
2018-03-24T06:55:15.386Z,1648.00
2018-03-24T06:56:15.384Z,1656.00
2018-03-24T06:57:15.386Z,1664.00
2018-03-24T06:58:15.394Z,1672.00
2018-03-24T06:59:15.392Z,1672.00
2018-03-24T07:00:15.394Z,1680.00
2018-03-24T07:01:15.398Z,1684.00
2018-03-24T07:02:15.406Z,1688.00
2018-03-24T07:03:15.407Z,1696.00
2018-03-24T07:04:15.414Z,1696.00
2018-03-24T07:05:15.418Z,1704.00
2018-03-24T07:06:15.421Z,1712.00
2018-03-24T07:07:15.432Z,1716.00
2018-03-24T07:08:15.430Z,1724.00
2018-03-24T07:09:15.433Z,1728.00
2018-03-24T07:10:15.438Z,1728.00
2018-03-24T07:11:15.442Z,1736.00
2018-03-24T07:12:15.443Z,1740.00
2018-03-24T07:13:15.448Z,1740.00
2018-03-24T07:14:15.460Z,1752.00
2018-03-24T07:15:15.458Z,1748.00
2018-03-24T07:16:15.463Z,1756.00
2018-03-24T07:17:15.465Z,1756.00
2018-03-24T07:18:15.469Z,1768.00
2018-03-24T07:19:15.473Z,1768.00
2018-03-24T07:20:15.478Z,1772.00
2018-03-24T07:21:15.533Z,1780.00
2018-03-24T07:22:15.488Z,1788.00
2018-03-24T07:23:15.490Z,1792.00
2018-03-24T07:24:15.496Z,1796.00
2018-03-24T07:25:15.497Z,1808.00
2018-03-24T07:26:15.504Z,1812.00
2018-03-24T07:27:15.508Z,1808.00
2018-03-24T07:28:15.511Z,1808.00
2018-03-24T07:29:15.522Z,1820.00
2018-03-24T07:30:15.528Z,1820.00
2018-03-24T07:31:15.525Z,1824.00
2018-03-24T07:32:15.531Z,1832.00
2018-03-24T07:33:15.539Z,1840.00
2018-03-24T07:34:15.537Z,1840.00
2018-03-24T07:35:15.548Z,1840.00
2018-03-24T07:36:15.553Z,1848.00
2018-03-24T07:37:15.552Z,1860.00
2018-03-24T07:38:15.562Z,1864.00
2018-03-24T07:39:15.578Z,1852.00
2018-03-24T07:40:15.564Z,1860.00
2018-03-24T07:41:15.566Z,1864.00
2018-03-24T07:42:15.581Z,1868.00
2018-03-24T07:43:15.576Z,1880.00
2018-03-24T07:44:15.581Z,1888.00
2018-03-24T07:45:15.585Z,1888.00
2018-03-24T07:46:15.593Z,1896.00
2018-03-24T07:47:15.595Z,1896.00
2018-03-24T07:48:15.598Z,1904.00
2018-03-24T07:49:15.604Z,1908.00
2018-03-24T07:50:15.611Z,1900.00
2018-03-24T07:51:15.614Z,1920.00
2018-03-24T07:52:15.621Z,1924.00
2018-03-24T07:53:15.620Z,1924.00
2018-03-24T07:54:15.626Z,1920.00
2018-03-24T07:55:15.633Z,1920.00
2018-03-24T07:56:15.634Z,1936.00
2018-03-24T07:57:15.642Z,1944.00
2018-03-24T07:58:15.645Z,1960.00
2018-03-24T07:59:15.650Z,1952.00
2018-03-24T08:00:15.653Z,1960.00
2018-03-24T08:01:15.659Z,1964.00
2018-03-24T08:02:15.662Z,1964.00
2018-03-24T08:03:15.666Z,1972.00
2018-03-24T08:04:15.675Z,1976.00
2018-03-24T08:05:15.674Z,1992.00
2018-03-24T08:06:15.681Z,1988.00
2018-03-24T08:07:15.686Z,2008.00
2018-03-24T08:08:15.692Z,2004.00
2018-03-24T08:09:15.695Z,2012.00
2018-03-24T08:10:15.719Z,2036.00
2018-03-24T08:11:15.708Z,2036.00
2018-03-24T08:12:15.717Z,2020.00
2018-03-24T08:13:15.716Z,2056.00
2018-03-24T08:14:15.720Z,2068.00
2018-03-24T08:15:15.732Z,2056.00
2018-03-24T08:16:15.732Z,2048.00
2018-03-24T08:17:15.737Z,2096.00
2018-03-24T08:18:15.740Z,2076.00
2018-03-24T08:19:15.745Z,2076.00
2018-03-24T08:20:15.747Z,2104.00
2018-03-24T08:21:15.754Z,2100.00
2018-03-24T08:22:15.761Z,2092.00
2018-03-24T08:23:15.767Z,2088.00
2018-03-24T08:24:15.771Z,2084.00
2018-03-24T08:25:15.776Z,2088.00
2018-03-24T08:26:15.779Z,2108.00
2018-03-24T08:27:15.785Z,2104.00
2018-03-24T08:28:15.790Z,2108.00
2018-03-24T08:29:15.794Z,2084.00
2018-03-24T08:30:15.802Z,2080.00
2018-03-24T08:31:15.805Z,2092.00
2018-03-24T08:32:15.816Z,2100.00
2018-03-24T08:33:15.826Z,2108.00
2018-03-24T08:34:15.821Z,2148.00
2018-03-24T08:35:15.834Z,2168.00
2018-03-24T08:36:15.830Z,2280.00
2018-03-24T08:37:15.838Z,2176.00
2018-03-24T08:38:15.840Z,2200.00
2018-03-24T08:39:15.846Z,2208.00
2018-03-24T08:40:15.853Z,2220.00
2018-03-24T08:41:15.857Z,2212.00
2018-03-24T08:42:15.861Z,2224.00
2018-03-24T08:43:15.869Z,2232.00
2018-03-24T08:44:15.871Z,2236.00
2018-03-24T08:45:15.890Z,2216.00
2018-03-24T08:46:15.882Z,2212.00
2018-03-24T08:47:15.891Z,2236.00
2018-03-24T08:48:56.465Z,2260.00
2018-03-24T08:49:56.446Z,2352.00
2018-03-24T08:52:00.565Z,2292.00
2018-03-24T08:53:00.549Z,2252.00
2018-03-24T08:55:04.446Z,2304.00
2018-03-24T08:56:04.469Z,2276.00
2018-03-24T08:58:08.477Z,2344.00
2018-03-24T08:59:08.449Z,2312.00
2018-03-24T09:01:12.474Z,2324.00
2018-03-24T09:02:12.472Z,2332.00
2018-03-24T09:04:05.421Z,2368.00
2018-03-24T09:05:05.402Z,2348.00
2018-03-24T09:07:09.424Z,2360.00
2018-03-24T09:08:09.405Z,2364.00
2018-03-24T09:10:13.397Z,2384.00
2018-03-24T09:11:13.400Z,2380.00
2018-03-24T09:13:17.417Z,2396.00
2018-03-24T09:14:17.401Z,2432.00
2018-03-24T09:16:21.400Z,2468.00
2018-03-24T09:17:21.402Z,2464.00
2018-03-24T09:19:25.462Z,2496.00
2018-03-24T09:20:25.445Z,2508.00
2018-03-24T09:22:29.462Z,2488.00
2018-03-24T09:23:29.447Z,2488.00
2018-03-24T09:25:33.443Z,2584.00
2018-03-24T09:26:33.445Z,2584.00
2018-03-24T09:28:37.472Z,2632.00
2018-03-24T09:29:37.452Z,2612.00
2018-03-24T09:31:41.470Z,2612.00
2018-03-24T09:32:41.450Z,2612.00
2018-03-24T09:34:45.473Z,2652.00
2018-03-24T09:35:45.452Z,2648.00
2018-03-24T09:37:49.613Z,2664.00
2018-03-24T09:38:49.457Z,2708.00
2018-03-24T09:40:53.466Z,2716.00
2018-03-24T09:41:53.465Z,2708.00
2018-03-24T09:43:46.411Z,2752.00
2018-03-24T09:44:46.392Z,2812.00
2018-03-24T09:46:50.414Z,2824.00
2018-03-24T09:47:50.398Z,2920.00
2018-03-24T09:49:54.402Z,2840.00
2018-03-24T09:50:54.399Z,2904.00
2018-03-24T09:51:54.407Z,2956.00
2018-03-24T09:52:54.426Z,3020.00
2018-03-24T09:53:54.419Z,3028.00
2018-03-24T09:54:54.425Z,3008.00
2018-03-24T09:55:54.451Z,2740.00
2018-03-24T09:56:54.442Z,2740.00
2018-03-24T09:57:54.445Z,2988.00
2018-03-24T09:58:54.451Z,3040.00
2018-03-24T09:59:54.459Z,3128.00
2018-03-24T10:00:54.461Z,3172.00
2018-03-24T10:01:54.474Z,3168.00
2018-03-24T10:02:54.485Z,3168.00
2018-03-24T10:03:54.508Z,3148.00
2018-03-24T10:04:54.500Z,3092.00
2018-03-24T10:05:54.497Z,3096.00
2018-03-24T10:06:54.512Z,3132.00
2018-03-24T10:07:54.507Z,3164.00
2018-03-24T10:08:54.516Z,3076.00
2018-03-24T10:09:54.542Z,3224.00
2018-03-24T10:10:54.566Z,3264.00
2018-03-24T10:11:54.535Z,3404.00
2018-03-24T10:12:54.562Z,3476.00
2018-03-24T10:13:54.548Z,3500.00
2018-03-24T10:14:54.555Z,3520.00
2018-03-24T10:15:54.593Z,3504.00
2018-03-24T10:16:54.617Z,3532.00
2018-03-24T10:17:54.574Z,3508.00
2018-03-24T10:18:54.586Z,3448.00
2018-03-24T10:19:54.593Z,3440.00
2018-03-24T10:20:54.594Z,3476.00
2018-03-24T10:21:54.640Z,3524.00
2018-03-24T10:22:54.631Z,3352.00
2018-03-24T10:23:54.614Z,3616.00
2018-03-24T10:24:54.645Z,3652.00
2018-03-24T10:25:54.628Z,3676.00
2018-03-24T10:26:54.649Z,2768.00
2018-03-24T10:27:54.640Z,3780.00
2018-03-24T10:28:54.713Z,3888.00
2018-03-24T10:29:54.667Z,3916.00
2018-03-24T10:30:54.662Z,3856.00
2018-03-24T10:31:54.669Z,3876.00
2018-03-24T10:32:54.679Z,3912.00
2018-03-24T10:33:54.686Z,4004.00
2018-03-24T10:34:54.691Z,4108.00
2018-03-24T10:35:54.697Z,4172.00
2018-03-24T10:36:54.703Z,4220.00
2018-03-24T10:37:54.711Z,4368.00
2018-03-24T10:38:54.727Z,4588.00
2018-03-24T10:39:54.730Z,4732.00
2018-03-24T10:40:54.737Z,4660.00
2018-03-24T10:41:54.739Z,4604.00
2018-03-24T10:42:54.751Z,4592.00
2018-03-24T10:43:54.756Z,4748.00
2018-03-24T10:44:54.767Z,5176.00
2018-03-24T10:45:54.773Z,6300.00
2018-03-24T10:46:54.777Z,23744.00
2018-03-24T10:47:54.784Z,37440.00
2018-03-24T10:48:54.812Z,44352.00
2018-03-24T10:49:54.799Z,45152.00
2018-03-24T10:50:54.806Z,43168.00
2018-03-24T10:51:54.852Z,50560.00
2018-03-24T10:52:54.855Z,46592.00
2018-03-24T10:53:54.832Z,4456.00
2018-03-24T10:54:54.839Z,4096.00
2018-03-24T10:55:54.858Z,4668.00
2018-03-24T10:56:54.859Z,5032.00
2018-03-24T10:57:54.874Z,4028.00
2018-03-24T10:58:54.878Z,4708.00
2018-03-24T10:59:54.899Z,5384.00
2018-03-24T11:00:54.892Z,4804.00
2018-03-24T11:01:54.942Z,4444.00
2018-03-24T11:02:54.912Z,5676.00
2018-03-24T11:03:54.918Z,5560.00
2018-03-24T11:04:54.924Z,5772.00
2018-03-24T11:05:54.936Z,5512.00
2018-03-24T11:06:54.947Z,5740.00
2018-03-24T11:07:54.955Z,5900.00
2018-03-24T11:08:54.965Z,5536.00
2018-03-24T11:09:54.998Z,92352.00
2018-03-24T11:10:55.001Z,5216.00
2018-03-24T11:11:54.986Z,6300.00
2018-03-24T11:12:54.993Z,5804.00
2018-03-24T11:13:55.004Z,7472.00
2018-03-24T11:14:55.011Z,57216.00
2018-03-24T11:15:55.033Z,27488.00
2018-03-24T11:16:55.117Z,50496.00
2018-03-24T11:17:55.036Z,89216.00
2018-03-24T11:18:55.054Z,87904.00
2018-03-24T11:19:55.115Z,65920.00
2018-03-24T11:20:55.070Z,33504.00
2018-03-24T11:21:55.085Z,22144.00
2018-03-24T11:22:55.086Z,15620.00
2018-03-24T11:23:55.094Z,13720.00
2018-03-24T11:24:55.115Z,12684.00
2018-03-24T11:25:55.138Z,12048.00
2018-03-24T11:26:55.128Z,12840.00
2018-03-24T11:27:55.135Z,46752.00
2018-03-24T11:28:55.144Z,47648.00
2018-03-24T11:29:55.155Z,40160.00
2018-03-24T11:30:55.167Z,42624.00
2018-03-24T11:31:55.179Z,25024.00
2018-03-24T11:32:55.194Z,30496.00
2018-03-24T11:33:55.223Z,32832.00
2018-03-24T11:34:55.212Z,51872.00
2018-03-24T11:35:55.226Z,43776.00
2018-03-24T11:36:55.234Z,70816.00
2018-03-24T11:37:55.246Z,53536.00
2018-03-24T11:38:55.258Z,51104.00
2018-03-24T11:39:55.269Z,56992.00
2018-03-24T11:40:55.282Z,41632.00
2018-03-24T11:41:55.292Z,56032.00
2018-03-24T11:42:55.317Z,32128.00
2018-03-24T11:43:55.319Z,31232.00
2018-03-24T11:44:55.377Z,32000.00
2018-03-24T11:45:55.344Z,33984.00
2018-03-24T11:46:55.356Z,65920.00
2018-03-24T11:47:55.511Z,43840.00
2018-03-24T11:48:55.379Z,49056.00
2018-03-24T11:49:55.394Z,74592.00
2018-03-24T11:50:55.415Z,45664.00
2018-03-24T11:51:55.414Z,54880.00
2018-03-24T11:52:55.427Z,70944.00
2018-03-24T11:53:55.441Z,38816.00
2018-03-24T11:54:55.453Z,34496.00
2018-03-24T11:55:55.464Z,40128.00
2018-03-24T11:56:55.477Z,22848.00
2018-03-24T11:57:55.491Z,27232.00
2018-03-24T11:58:55.500Z,28064.00
2018-03-24T11:59:55.513Z,23168.00
2018-03-24T12:00:55.534Z,41056.00
2018-03-24T12:01:55.592Z,61760.00
2018-03-24T12:02:55.609Z,41504.00
2018-03-24T12:03:55.564Z,50432.00
2018-03-24T12:04:55.577Z,56800.00
2018-03-24T12:05:55.587Z,30400.00
2018-03-24T12:06:55.604Z,38752.00
2018-03-24T12:07:55.623Z,73312.00
2018-03-24T12:08:55.625Z,62240.00
2018-03-24T12:09:55.637Z,30048.00
2018-03-24T12:10:55.652Z,40704.00
2018-03-24T12:11:55.661Z,51488.00
2018-03-24T12:12:55.685Z,23712.00
2018-03-24T12:13:55.688Z,16800.00
2018-03-24T12:14:55.708Z,16320.00
2018-03-24T12:15:55.714Z,14364.00
2018-03-24T12:16:55.728Z,14520.00
2018-03-24T12:17:55.736Z,14464.00
2018-03-24T12:18:55.751Z,13544.00
2018-03-24T12:19:55.769Z,13240.00
2018-03-24T12:20:55.774Z,13180.00
2018-03-24T12:21:55.794Z,12420.00
2018-03-24T12:22:55.803Z,13836.00
2018-03-24T12:23:55.817Z,35200.00
2018-03-24T12:24:55.828Z,56096.00
2018-03-24T12:25:55.840Z,33472.00
2018-03-24T12:26:55.857Z,51520.00
2018-03-24T12:27:55.879Z,85120.00
2018-03-24T12:28:55.880Z,81184.00
2018-03-24T12:29:55.896Z,50592.00
2018-03-24T12:30:55.910Z,19520.00
2018-03-24T12:31:55.930Z,32992.00
2018-03-24T12:32:55.938Z,41440.00
2018-03-24T12:33:55.954Z,33664.00
2018-03-24T12:34:55.966Z,18912.00
2018-03-24T12:35:55.978Z,22624.00
2018-03-24T12:36:55.991Z,48384.00
2018-03-24T12:37:56.006Z,68032.00
2018-03-24T12:38:56.023Z,74176.00
2018-03-24T12:39:56.042Z,54048.00
2018-03-24T12:40:56.099Z,33632.00
2018-03-24T12:41:56.067Z,70400.00
2018-03-24T12:42:56.079Z,95776.00
2018-03-24T12:43:56.094Z,96640.00
2018-03-24T12:44:56.108Z,89280.00
2018-03-24T12:45:56.129Z,45152.00
2018-03-24T12:46:56.139Z,63296.00
2018-03-24T12:47:56.155Z,99328.00
2018-03-24T12:48:56.168Z,98784.00
2018-03-24T12:49:56.194Z,80992.00
2018-03-24T12:50:56.198Z,39328.00
2018-03-24T12:51:56.222Z,33888.00
2018-03-24T12:52:56.230Z,52864.00